sensor_id;sensor_type;location;lat;lon;timestamp;temperature;humidity
20698;DHT22;10508;50.956;4.640;2022-07-19T00:02:16;21.70;95.90
20698;DHT22;10508;50.956;4.640;2022-07-19T00:04:42;21.60;96.20
20698;DHT22;10508;50.956;4.640;2022-07-19T00:07:08;21.90;95.90
20698;DHT22;10508;50.956;4.640;2022-07-19T00:09:33;22.00;95.30
20698;DHT22;10508;50.956;4.640;2022-07-19T00:11:59;21.80;95.60
20698;DHT22;10508;50.956;4.640;2022-07-19T00:14:24;21.90;95.70
20698;DHT22;10508;50.956;4.640;2022-07-19T00:16:50;21.70;95.90
20698;DHT22;10508;50.956;4.640;2022-07-19T00:19:16;21.70;96.50
20698;DHT22;10508;50.956;4.640;2022-07-19T00:22:00;21.60;96.80
20698;DHT22;10508;50.956;4.640;2022-07-19T00:24:26;21.70;96.50
20698;DHT22;10508;50.956;4.640;2022-07-19T00:26:51;21.50;96.50
20698;DHT22;10508;50.956;4.640;2022-07-19T00:29:17;21.40;97.10
20698;DHT22;10508;50.956;4.640;2022-07-19T00:31:43;21.20;97.50
20698;DHT22;10508;50.956;4.640;2022-07-19T00:34:08;21.10;98.30
20698;DHT22;10508;50.956;4.640;2022-07-19T00:36:34;21.00;98.70
20698;DHT22;10508;50.956;4.640;2022-07-19T00:39:00;20.90;98.90
20698;DHT22;10508;50.956;4.640;2022-07-19T00:41:26;21.00;99.00
20698;DHT22;10508;50.956;4.640;2022-07-19T00:43:52;21.00;99.10
20698;DHT22;10508;50.956;4.640;2022-07-19T00:46:20;20.80;99.60
20698;DHT22;10508;50.956;4.640;2022-07-19T00:48:46;20.70;99.90
20698;DHT22;10508;50.956;4.640;2022-07-19T00:51:15;20.70;99.90
20698;DHT22;10508;50.956;4.640;2022-07-19T00:53:42;20.90;99.90
20698;DHT22;10508;50.956;4.640;2022-07-19T00:56:09;20.80;99.90
20698;DHT22;10508;50.956;4.640;2022-07-19T00:58:37;20.70;99.90
20698;DHT22;10508;50.956;4.640;2022-07-19T01:01:04;20.60;99.90
20698;DHT22;10508;50.956;4.640;2022-07-19T01:03:31;20.40;99.90
20698;DHT22;10508;50.956;4.640;2022-07-19T01:05:59;20.50;99.90
20698;DHT22;10508;50.956;4.640;2022-07-19T01:08:25;20.50;99.90
20698;DHT22;10508;50.956;4.640;2022-07-19T01:10:51;20.50;99.90
20698;DHT22;10508;50.956;4.640;2022-07-19T01:13:16;20.50;99.90
20698;DHT22;10508;50.956;4.640;2022-07-19T01:15:42;20.60;99.90
20698;DHT22;10508;50.956;4.640;2022-07-19T01:18:09;20.50;99.90
20698;DHT22;10508;50.956;4.640;2022-07-19T01:20:35;20.30;99.90
20698;DHT22;10508;50.956;4.640;2022-07-19T01:23:00;20.30;99.90
20698;DHT22;10508;50.956;4.640;2022-07-19T01:25:28;20.30;99.90
20698;DHT22;10508;50.956;4.640;2022-07-19T01:27:55;20.20;99.90
20698;DHT22;10508;50.956;4.640;2022-07-19T01:30:23;20.10;99.90
20698;DHT22;10508;50.956;4.640;2022-07-19T01:32:50;20.00;99.90
20698;DHT22;10508;50.956;4.640;2022-07-19T01:35:16;20.10;99.90
20698;DHT22;10508;50.956;4.640;2022-07-19T01:37:43;20.00;99.90
20698;DHT22;10508;50.956;4.640;2022-07-19T01:40:10;20.00;99.90
20698;DHT22;10508;50.956;4.640;2022-07-19T01:42:36;20.00;99.90
20698;DHT22;10508;50.956;4.640;2022-07-19T01:45:03;20.00;99.90
20698;DHT22;10508;50.956;4.640;2022-07-19T01:47:29;19.90;99.90
20698;DHT22;10508;50.956;4.640;2022-07-19T01:49:55;19.90;99.90
20698;DHT22;10508;50.956;4.640;2022-07-19T01:52:21;19.90;99.90
20698;DHT22;10508;50.956;4.640;2022-07-19T01:54:46;20.00;99.90
20698;DHT22;10508;50.956;4.640;2022-07-19T01:57:12;19.90;99.90
20698;DHT22;10508;50.956;4.640;2022-07-19T01:59:38;20.00;99.90
20698;DHT22;10508;50.956;4.640;2022-07-19T02:02:05;20.10;99.90
20698;DHT22;10508;50.956;4.640;2022-07-19T02:04:30;20.40;99.90
20698;DHT22;10508;50.956;4.640;2022-07-19T02:06:56;20.20;99.90
20698;DHT22;10508;50.956;4.640;2022-07-19T02:09:22;19.90;99.90
20698;DHT22;10508;50.956;4.640;2022-07-19T02:11:47;19.80;99.90
20698;DHT22;10508;50.956;4.640;2022-07-19T02:14:13;19.60;99.90
20698;DHT22;10508;50.956;4.640;2022-07-19T02:16:39;19.60;99.90
20698;DHT22;10508;50.956;4.640;2022-07-19T02:19:06;19.60;99.90
20698;DHT22;10508;50.956;4.640;2022-07-19T02:21:33;19.50;99.90
20698;DHT22;10508;50.956;4.640;2022-07-19T02:23:59;19.50;99.90
20698;DHT22;10508;50.956;4.640;2022-07-19T02:26:30;19.50;99.90
20698;DHT22;10508;50.956;4.640;2022-07-19T02:28:55;19.40;99.90
20698;DHT22;10508;50.956;4.640;2022-07-19T02:31:21;19.50;99.90
20698;DHT22;10508;50.956;4.640;2022-07-19T02:33:47;19.50;99.90
20698;DHT22;10508;50.956;4.640;2022-07-19T02:36:13;19.50;99.90
20698;DHT22;10508;50.956;4.640;2022-07-19T02:38:39;19.50;99.90
20698;DHT22;10508;50.956;4.640;2022-07-19T02:41:04;19.30;99.90
20698;DHT22;10508;50.956;4.640;2022-07-19T02:43:30;19.30;99.90
20698;DHT22;10508;50.956;4.640;2022-07-19T02:45:56;19.40;99.90
20698;DHT22;10508;50.956;4.640;2022-07-19T02:48:22;19.30;99.90
20698;DHT22;10508;50.956;4.640;2022-07-19T02:50:47;19.30;99.90
20698;DHT22;10508;50.956;4.640;2022-07-19T02:53:13;19.20;99.90
20698;DHT22;10508;50.956;4.640;2022-07-19T02:55:40;19.10;99.90
20698;DHT22;10508;50.956;4.640;2022-07-19T02:58:06;19.00;99.90
20698;DHT22;10508;50.956;4.640;2022-07-19T03:00:32;19.10;99.90
20698;DHT22;10508;50.956;4.640;2022-07-19T03:02:58;19.10;99.90
20698;DHT22;10508;50.956;4.640;2022-07-19T03:05:43;19.30;99.90
20698;DHT22;10508;50.956;4.640;2022-07-19T03:08:09;19.20;99.90
20698;DHT22;10508;50.956;4.640;2022-07-19T03:10:35;19.10;99.90
20698;DHT22;10508;50.956;4.640;2022-07-19T03:13:00;19.10;99.90
20698;DHT22;10508;50.956;4.640;2022-07-19T03:15:26;19.10;99.90
20698;DHT22;10508;50.956;4.640;2022-07-19T03:17:52;19.30;99.90
20698;DHT22;10508;50.956;4.640;2022-07-19T03:20:17;19.10;99.90
20698;DHT22;10508;50.956;4.640;2022-07-19T03:22:43;19.10;99.90
20698;DHT22;10508;50.956;4.640;2022-07-19T03:25:08;19.20;99.90
20698;DHT22;10508;50.956;4.640;2022-07-19T03:27:34;19.30;99.90
20698;DHT22;10508;50.956;4.640;2022-07-19T03:30:00;19.30;99.90
20698;DHT22;10508;50.956;4.640;2022-07-19T03:32:26;19.10;99.90
20698;DHT22;10508;50.956;4.640;2022-07-19T03:34:52;19.00;99.90
20698;DHT22;10508;50.956;4.640;2022-07-19T03:37:17;18.90;99.90
20698;DHT22;10508;50.956;4.640;2022-07-19T03:39:43;18.90;99.90
20698;DHT22;10508;50.956;4.640;2022-07-19T03:42:09;18.90;99.90
20698;DHT22;10508;50.956;4.640;2022-07-19T03:44:34;18.90;99.90
20698;DHT22;10508;50.956;4.640;2022-07-19T03:47:00;18.90;99.90
20698;DHT22;10508;50.956;4.640;2022-07-19T03:49:26;18.80;99.90
20698;DHT22;10508;50.956;4.640;2022-07-19T03:51:51;18.80;99.90
20698;DHT22;10508;50.956;4.640;2022-07-19T03:54:17;18.90;99.90
20698;DHT22;10508;50.956;4.640;2022-07-19T03:56:43;18.80;99.90
20698;DHT22;10508;50.956;4.640;2022-07-19T03:59:08;18.70;99.90
20698;DHT22;10508;50.956;4.640;2022-07-19T04:01:34;18.70;99.90
20698;DHT22;10508;50.956;4.640;2022-07-19T04:04:00;18.70;99.90
20698;DHT22;10508;50.956;4.640;2022-07-19T04:06:25;18.80;99.90
20698;DHT22;10508;50.956;4.640;2022-07-19T04:08:51;18.80;99.90
20698;DHT22;10508;50.956;4.640;2022-07-19T04:11:26;18.80;99.90
20698;DHT22;10508;50.956;4.640;2022-07-19T04:13:52;18.70;99.90
20698;DHT22;10508;50.956;4.640;2022-07-19T04:16:18;18.60;99.90
20698;DHT22;10508;50.956;4.640;2022-07-19T04:18:43;18.60;99.90
20698;DHT22;10508;50.956;4.640;2022-07-19T04:21:09;18.50;99.90
20698;DHT22;10508;50.956;4.640;2022-07-19T04:23:35;18.60;99.90
20698;DHT22;10508;50.956;4.640;2022-07-19T04:26:00;18.70;99.90
20698;DHT22;10508;50.956;4.640;2022-07-19T04:28:26;18.70;99.90
20698;DHT22;10508;50.956;4.640;2022-07-19T04:30:51;18.70;99.90
20698;DHT22;10508;50.956;4.640;2022-07-19T04:33:18;18.80;99.90
20698;DHT22;10508;50.956;4.640;2022-07-19T04:35:45;18.80;99.90
20698;DHT22;10508;50.956;4.640;2022-07-19T04:38:11;18.90;99.90
20698;DHT22;10508;50.956;4.640;2022-07-19T04:40:37;18.90;99.90
20698;DHT22;10508;50.956;4.640;2022-07-19T04:43:03;18.90;99.90
20698;DHT22;10508;50.956;4.640;2022-07-19T04:45:29;19.00;99.90
20698;DHT22;10508;50.956;4.640;2022-07-19T04:47:55;18.90;99.90
20698;DHT22;10508;50.956;4.640;2022-07-19T04:50:21;19.00;99.90
20698;DHT22;10508;50.956;4.640;2022-07-19T04:52:46;19.00;99.90
20698;DHT22;10508;50.956;4.640;2022-07-19T04:55:12;19.00;99.90
20698;DHT22;10508;50.956;4.640;2022-07-19T04:57:38;19.00;99.90
20698;DHT22;10508;50.956;4.640;2022-07-19T05:00:06;19.10;99.90
20698;DHT22;10508;50.956;4.640;2022-07-19T05:02:34;19.20;99.90
20698;DHT22;10508;50.956;4.640;2022-07-19T05:05:00;19.30;99.90
20698;DHT22;10508;50.956;4.640;2022-07-19T05:07:26;19.40;99.90
20698;DHT22;10508;50.956;4.640;2022-07-19T05:09:51;19.50;99.90
20698;DHT22;10508;50.956;4.640;2022-07-19T05:12:17;19.50;99.90
20698;DHT22;10508;50.956;4.640;2022-07-19T05:14:42;19.60;99.90
20698;DHT22;10508;50.956;4.640;2022-07-19T05:17:08;19.60;99.90
20698;DHT22;10508;50.956;4.640;2022-07-19T05:19:34;19.70;99.90
20698;DHT22;10508;50.956;4.640;2022-07-19T05:21:59;19.80;99.90
20698;DHT22;10508;50.956;4.640;2022-07-19T05:24:25;19.80;99.90
20698;DHT22;10508;50.956;4.640;2022-07-19T05:26:51;19.90;99.90
20698;DHT22;10508;50.956;4.640;2022-07-19T05:29:16;20.00;99.90
20698;DHT22;10508;50.956;4.640;2022-07-19T05:31:42;20.10;99.90
20698;DHT22;10508;50.956;4.640;2022-07-19T05:34:08;20.20;99.90
20698;DHT22;10508;50.956;4.640;2022-07-19T05:36:33;20.30;99.90
20698;DHT22;10508;50.956;4.640;2022-07-19T05:38:59;20.40;99.90
20698;DHT22;10508;50.956;4.640;2022-07-19T05:41:24;20.50;99.90
20698;DHT22;10508;50.956;4.640;2022-07-19T05:43:51;20.70;99.90
20698;DHT22;10508;50.956;4.640;2022-07-19T05:46:17;20.70;99.90
20698;DHT22;10508;50.956;4.640;2022-07-19T05:48:43;20.90;99.90
20698;DHT22;10508;50.956;4.640;2022-07-19T05:51:09;21.00;99.90
20698;DHT22;10508;50.956;4.640;2022-07-19T05:53:36;21.10;99.90
20698;DHT22;10508;50.956;4.640;2022-07-19T05:56:02;21.20;99.90
20698;DHT22;10508;50.956;4.640;2022-07-19T05:58:28;21.30;99.90
20698;DHT22;10508;50.956;4.640;2022-07-19T06:00:54;21.40;99.90
20698;DHT22;10508;50.956;4.640;2022-07-19T06:03:38;21.50;99.90
20698;DHT22;10508;50.956;4.640;2022-07-19T06:06:04;21.60;99.90
20698;DHT22;10508;50.956;4.640;2022-07-19T06:08:29;21.80;99.90
20698;DHT22;10508;50.956;4.640;2022-07-19T06:10:55;21.90;99.90
20698;DHT22;10508;50.956;4.640;2022-07-19T06:13:21;21.90;99.90
20698;DHT22;10508;50.956;4.640;2022-07-19T06:15:47;22.10;99.60
20698;DHT22;10508;50.956;4.640;2022-07-19T06:18:13;22.10;99.30
20698;DHT22;10508;50.956;4.640;2022-07-19T06:20:39;22.30;98.80
20698;DHT22;10508;50.956;4.640;2022-07-19T06:23:04;22.40;98.10
20698;DHT22;10508;50.956;4.640;2022-07-19T06:25:30;22.50;98.00
20698;DHT22;10508;50.956;4.640;2022-07-19T06:27:55;22.60;97.80
20698;DHT22;10508;50.956;4.640;2022-07-19T06:30:21;22.70;97.30
20698;DHT22;10508;50.956;4.640;2022-07-19T06:32:47;22.80;96.90
20698;DHT22;10508;50.956;4.640;2022-07-19T06:35:12;22.90;96.50
20698;DHT22;10508;50.956;4.640;2022-07-19T06:37:38;23.10;95.80
20698;DHT22;10508;50.956;4.640;2022-07-19T06:40:04;23.30;95.30
20698;DHT22;10508;50.956;4.640;2022-07-19T06:42:30;23.40;95.90
20698;DHT22;10508;50.956;4.640;2022-07-19T06:44:56;23.50;95.20
20698;DHT22;10508;50.956;4.640;2022-07-19T06:47:24;23.70;93.90
20698;DHT22;10508;50.956;4.640;2022-07-19T06:49:49;24.00;92.60
20698;DHT22;10508;50.956;4.640;2022-07-19T06:52:15;24.20;91.60
20698;DHT22;10508;50.956;4.640;2022-07-19T06:54:40;24.30;91.00
20698;DHT22;10508;50.956;4.640;2022-07-19T06:57:06;24.40;91.00
20698;DHT22;10508;50.956;4.640;2022-07-19T06:59:33;24.50;90.70
20698;DHT22;10508;50.956;4.640;2022-07-19T07:01:59;24.60;90.60
20698;DHT22;10508;50.956;4.640;2022-07-19T07:04:25;24.70;90.20
20698;DHT22;10508;50.956;4.640;2022-07-19T07:06:50;24.80;90.00
20698;DHT22;10508;50.956;4.640;2022-07-19T07:09:16;24.90;89.30
20698;DHT22;10508;50.956;4.640;2022-07-19T07:11:41;25.10;88.50
20698;DHT22;10508;50.956;4.640;2022-07-19T07:14:08;25.20;88.60
20698;DHT22;10508;50.956;4.640;2022-07-19T07:16:34;25.40;88.00
20698;DHT22;10508;50.956;4.640;2022-07-19T07:18:59;25.50;87.30
20698;DHT22;10508;50.956;4.640;2022-07-19T07:21:25;25.60;87.80
20698;DHT22;10508;50.956;4.640;2022-07-19T07:23:50;25.80;85.50
20698;DHT22;10508;50.956;4.640;2022-07-19T07:26:16;26.10;86.00
20698;DHT22;10508;50.956;4.640;2022-07-19T07:28:42;26.20;83.60
20698;DHT22;10508;50.956;4.640;2022-07-19T07:31:07;26.30;83.30
20698;DHT22;10508;50.956;4.640;2022-07-19T07:33:33;26.60;82.10
20698;DHT22;10508;50.956;4.640;2022-07-19T07:35:59;26.90;78.70
20698;DHT22;10508;50.956;4.640;2022-07-19T07:38:24;27.10;77.50
20698;DHT22;10508;50.956;4.640;2022-07-19T07:40:50;27.30;76.30
20698;DHT22;10508;50.956;4.640;2022-07-19T07:43:16;27.40;74.20
20698;DHT22;10508;50.956;4.640;2022-07-19T07:45:41;27.50;73.30
20698;DHT22;10508;50.956;4.640;2022-07-19T07:48:08;27.70;73.30
20698;DHT22;10508;50.956;4.640;2022-07-19T07:50:34;27.80;72.40
20698;DHT22;10508;50.956;4.640;2022-07-19T07:52:59;27.80;71.90
20698;DHT22;10508;50.956;4.640;2022-07-19T07:55:25;27.90;71.60
20698;DHT22;10508;50.956;4.640;2022-07-19T07:57:51;28.00;72.20
20698;DHT22;10508;50.956;4.640;2022-07-19T08:00:16;28.10;72.30
20698;DHT22;10508;50.956;4.640;2022-07-19T08:02:44;28.30;71.70
20698;DHT22;10508;50.956;4.640;2022-07-19T08:05:11;28.40;71.30
20698;DHT22;10508;50.956;4.640;2022-07-19T08:07:38;28.50;72.10
20698;DHT22;10508;50.956;4.640;2022-07-19T08:10:05;28.50;75.00
20698;DHT22;10508;50.956;4.640;2022-07-19T08:12:32;28.80;72.60
20698;DHT22;10508;50.956;4.640;2022-07-19T08:14:58;28.80;72.80
20698;DHT22;10508;50.956;4.640;2022-07-19T08:17:23;28.80;72.60
20698;DHT22;10508;50.956;4.640;2022-07-19T08:19:49;29.00;73.80
20698;DHT22;10508;50.956;4.640;2022-07-19T08:22:15;29.10;70.60
20698;DHT22;10508;50.956;4.640;2022-07-19T08:24:42;29.10;71.20
20698;DHT22;10508;50.956;4.640;2022-07-19T08:27:08;29.20;71.30
20698;DHT22;10508;50.956;4.640;2022-07-19T08:29:33;29.40;72.20
20698;DHT22;10508;50.956;4.640;2022-07-19T08:31:59;29.60;70.50
20698;DHT22;10508;50.956;4.640;2022-07-19T08:34:25;29.70;73.40
20698;DHT22;10508;50.956;4.640;2022-07-19T08:36:50;29.70;72.00
20698;DHT22;10508;50.956;4.640;2022-07-19T08:39:16;29.90;70.20
20698;DHT22;10508;50.956;4.640;2022-07-19T08:41:45;30.00;69.90
20698;DHT22;10508;50.956;4.640;2022-07-19T08:44:11;30.20;68.50
20698;DHT22;10508;50.956;4.640;2022-07-19T08:46:40;30.40;66.50
20698;DHT22;10508;50.956;4.640;2022-07-19T08:49:07;30.60;66.80
20698;DHT22;10508;50.956;4.640;2022-07-19T08:51:33;30.70;67.70
20698;DHT22;10508;50.956;4.640;2022-07-19T08:53:59;30.80;66.40
20698;DHT22;10508;50.956;4.640;2022-07-19T08:56:25;30.90;66.30
20698;DHT22;10508;50.956;4.640;2022-07-19T08:59:09;31.10;66.50
20698;DHT22;10508;50.956;4.640;2022-07-19T09:01:35;31.20;67.80
20698;DHT22;10508;50.956;4.640;2022-07-19T09:04:08;31.30;64.10
20698;DHT22;10508;50.956;4.640;2022-07-19T09:06:43;31.30;66.10
20698;DHT22;10508;50.956;4.640;2022-07-19T09:09:10;31.50;63.70
20698;DHT22;10508;50.956;4.640;2022-07-19T09:11:38;31.80;61.40
20698;DHT22;10508;50.956;4.640;2022-07-19T09:14:06;32.10;60.90
20698;DHT22;10508;50.956;4.640;2022-07-19T09:19:18;32.40;59.50
20698;DHT22;10508;50.956;4.640;2022-07-19T09:21:56;32.50;60.00
20698;DHT22;10508;50.956;4.640;2022-07-19T09:24:23;32.50;58.20
20698;DHT22;10508;50.956;4.640;2022-07-19T09:29:31;32.80;55.80
20698;DHT22;10508;50.956;4.640;2022-07-19T09:32:11;33.00;54.20
20698;DHT22;10508;50.956;4.640;2022-07-19T09:34:56;33.30;54.20
20698;DHT22;10508;50.956;4.640;2022-07-19T09:37:27;33.40;55.60
20698;DHT22;10508;50.956;4.640;2022-07-19T09:39:56;33.60;54.30
20698;DHT22;10508;50.956;4.640;2022-07-19T09:42:43;33.60;56.90
20698;DHT22;10508;50.956;4.640;2022-07-19T09:45:10;33.80;53.20
20698;DHT22;10508;50.956;4.640;2022-07-19T09:47:41;33.90;52.80
20698;DHT22;10508;50.956;4.640;2022-07-19T09:50:10;34.30;50.60
20698;DHT22;10508;50.956;4.640;2022-07-19T09:52:36;34.40;50.20
20698;DHT22;10508;50.956;4.640;2022-07-19T09:55:06;34.40;49.50
20698;DHT22;10508;50.956;4.640;2022-07-19T09:57:51;34.60;50.90
20698;DHT22;10508;50.956;4.640;2022-07-19T10:00:19;34.70;50.80
20698;DHT22;10508;50.956;4.640;2022-07-19T10:02:49;34.80;50.80
20698;DHT22;10508;50.956;4.640;2022-07-19T10:05:15;34.90;49.70
20698;DHT22;10508;50.956;4.640;2022-07-19T10:07:42;35.00;49.90
20698;DHT22;10508;50.956;4.640;2022-07-19T10:10:12;34.90;50.00
20698;DHT22;10508;50.956;4.640;2022-07-19T10:12:39;35.10;49.80
20698;DHT22;10508;50.956;4.640;2022-07-19T10:15:06;35.20;49.00
20698;DHT22;10508;50.956;4.640;2022-07-19T10:17:58;35.30;49.20
20698;DHT22;10508;50.956;4.640;2022-07-19T10:20:26;35.40;48.70
20698;DHT22;10508;50.956;4.640;2022-07-19T10:22:58;35.50;48.50
20698;DHT22;10508;50.956;4.640;2022-07-19T10:25:24;35.70;49.60
20698;DHT22;10508;50.956;4.640;2022-07-19T10:28:01;35.70;47.30
20698;DHT22;10508;50.956;4.640;2022-07-19T10:30:27;35.70;47.80
20698;DHT22;10508;50.956;4.640;2022-07-19T10:32:54;35.90;47.20
20698;DHT22;10508;50.956;4.640;2022-07-19T10:35:31;36.10;46.70
20698;DHT22;10508;50.956;4.640;2022-07-19T10:40:55;36.40;44.90
20698;DHT22;10508;50.956;4.640;2022-07-19T10:43:22;36.50;44.30
20698;DHT22;10508;50.956;4.640;2022-07-19T10:48:47;36.50;43.60
20698;DHT22;10508;50.956;4.640;2022-07-19T10:51:31;36.60;44.60
20698;DHT22;10508;50.956;4.640;2022-07-19T10:54:01;36.60;43.90
20698;DHT22;10508;50.956;4.640;2022-07-19T10:56:42;36.70;43.00
20698;DHT22;10508;50.956;4.640;2022-07-19T10:59:31;36.70;42.80
20698;DHT22;10508;50.956;4.640;2022-07-19T11:01:57;36.80;43.20
20698;DHT22;10508;50.956;4.640;2022-07-19T11:04:31;36.80;42.00
20698;DHT22;10508;50.956;4.640;2022-07-19T11:07:17;36.80;42.40
20698;DHT22;10508;50.956;4.640;2022-07-19T11:09:54;36.80;41.70
20698;DHT22;10508;50.956;4.640;2022-07-19T11:15:00;37.00;41.20
20698;DHT22;10508;50.956;4.640;2022-07-19T11:17:25;37.00;41.20
20698;DHT22;10508;50.956;4.640;2022-07-19T11:20:07;37.10;42.00
20698;DHT22;10508;50.956;4.640;2022-07-19T11:22:35;37.20;41.20
20698;DHT22;10508;50.956;4.640;2022-07-19T11:25:04;37.40;41.30
20698;DHT22;10508;50.956;4.640;2022-07-19T11:27:30;37.40;40.60
20698;DHT22;10508;50.956;4.640;2022-07-19T11:30:01;37.40;39.50
20698;DHT22;10508;50.956;4.640;2022-07-19T11:32:28;37.40;39.70
20698;DHT22;10508;50.956;4.640;2022-07-19T11:35:05;37.40;39.60
20698;DHT22;10508;50.956;4.640;2022-07-19T11:37:37;37.40;39.10
20698;DHT22;10508;50.956;4.640;2022-07-19T11:40:05;37.60;40.00
20698;DHT22;10508;50.956;4.640;2022-07-19T11:45:13;37.40;40.60
20698;DHT22;10508;50.956;4.640;2022-07-19T11:47:45;37.40;39.90
20698;DHT22;10508;50.956;4.640;2022-07-19T11:50:14;37.50;40.00
20698;DHT22;10508;50.956;4.640;2022-07-19T11:55:16;37.70;39.70
20698;DHT22;10508;50.956;4.640;2022-07-19T11:57:42;37.70;39.50
20698;DHT22;10508;50.956;4.640;2022-07-19T12:00:09;37.70;39.70
20698;DHT22;10508;50.956;4.640;2022-07-19T12:02:52;37.90;41.00
20698;DHT22;10508;50.956;4.640;2022-07-19T12:05:19;38.00;41.10
20698;DHT22;10508;50.956;4.640;2022-07-19T12:07:49;38.10;39.80
20698;DHT22;10508;50.956;4.640;2022-07-19T12:10:46;38.20;39.80
20698;DHT22;10508;50.956;4.640;2022-07-19T12:13:31;38.30;39.30
20698;DHT22;10508;50.956;4.640;2022-07-19T12:16:11;38.20;39.30
20698;DHT22;10508;50.956;4.640;2022-07-19T12:24:22;38.40;39.10
20698;DHT22;10508;50.956;4.640;2022-07-19T12:31:46;38.30;40.90
20698;DHT22;10508;50.956;4.640;2022-07-19T12:34:13;38.40;39.40
20698;DHT22;10508;50.956;4.640;2022-07-19T12:36:39;38.50;39.40
20698;DHT22;10508;50.956;4.640;2022-07-19T12:39:05;38.70;39.00
20698;DHT22;10508;50.956;4.640;2022-07-19T12:42:02;38.50;39.20
20698;DHT22;10508;50.956;4.640;2022-07-19T12:44:29;38.40;39.30
20698;DHT22;10508;50.956;4.640;2022-07-19T12:46:56;38.50;39.20
20698;DHT22;10508;50.956;4.640;2022-07-19T12:49:22;38.50;40.00
20698;DHT22;10508;50.956;4.640;2022-07-19T12:51:47;38.70;39.70
20698;DHT22;10508;50.956;4.640;2022-07-19T12:54:13;38.80;39.70
20698;DHT22;10508;50.956;4.640;2022-07-19T12:56:39;38.70;38.70
20698;DHT22;10508;50.956;4.640;2022-07-19T12:59:06;38.70;39.70
20698;DHT22;10508;50.956;4.640;2022-07-19T13:01:50;38.90;39.40
20698;DHT22;10508;50.956;4.640;2022-07-19T13:04:16;39.00;38.90
20698;DHT22;10508;50.956;4.640;2022-07-19T13:06:42;38.80;38.00
20698;DHT22;10508;50.956;4.640;2022-07-19T13:09:07;38.70;39.70
20698;DHT22;10508;50.956;4.640;2022-07-19T13:11:35;38.90;40.60
20698;DHT22;10508;50.956;4.640;2022-07-19T13:14:01;39.00;38.80
20698;DHT22;10508;50.956;4.640;2022-07-19T13:16:27;39.00;38.70
20698;DHT22;10508;50.956;4.640;2022-07-19T13:18:52;39.00;38.50
20698;DHT22;10508;50.956;4.640;2022-07-19T13:21:19;39.10;38.80
20698;DHT22;10508;50.956;4.640;2022-07-19T13:23:45;39.10;38.60
20698;DHT22;10508;50.956;4.640;2022-07-19T13:26:11;39.30;38.20
20698;DHT22;10508;50.956;4.640;2022-07-19T13:28:37;39.10;38.10
20698;DHT22;10508;50.956;4.640;2022-07-19T13:31:03;39.20;37.90
20698;DHT22;10508;50.956;4.640;2022-07-19T13:33:29;39.30;38.10
20698;DHT22;10508;50.956;4.640;2022-07-19T13:35:55;39.10;36.90
20698;DHT22;10508;50.956;4.640;2022-07-19T13:38:21;39.20;37.20
20698;DHT22;10508;50.956;4.640;2022-07-19T13:40:47;39.30;37.80
20698;DHT22;10508;50.956;4.640;2022-07-19T13:43:13;39.60;39.10
20698;DHT22;10508;50.956;4.640;2022-07-19T13:45:39;39.90;37.70
20698;DHT22;10508;50.956;4.640;2022-07-19T13:48:05;39.70;35.90
20698;DHT22;10508;50.956;4.640;2022-07-19T13:50:31;39.70;36.00
20698;DHT22;10508;50.956;4.640;2022-07-19T13:52:57;39.70;35.10
20698;DHT22;10508;50.956;4.640;2022-07-19T13:55:23;39.60;36.20
20698;DHT22;10508;50.956;4.640;2022-07-19T13:57:49;39.60;35.60
20698;DHT22;10508;50.956;4.640;2022-07-19T14:00:15;39.60;35.60
20698;DHT22;10508;50.956;4.640;2022-07-19T14:02:44;39.40;35.30
20698;DHT22;10508;50.956;4.640;2022-07-19T14:05:10;39.60;37.50
20698;DHT22;10508;50.956;4.640;2022-07-19T14:07:36;39.90;36.00
20698;DHT22;10508;50.956;4.640;2022-07-19T14:10:03;40.00;35.70
20698;DHT22;10508;50.956;4.640;2022-07-19T14:12:29;40.20;36.30
20698;DHT22;10508;50.956;4.640;2022-07-19T14:14:55;40.00;34.20
20698;DHT22;10508;50.956;4.640;2022-07-19T14:17:20;40.00;35.80
20698;DHT22;10508;50.956;4.640;2022-07-19T14:19:46;40.20;35.30
20698;DHT22;10508;50.956;4.640;2022-07-19T14:22:12;40.40;35.60
20698;DHT22;10508;50.956;4.640;2022-07-19T14:24:37;40.40;35.60
20698;DHT22;10508;50.956;4.640;2022-07-19T14:27:03;40.70;36.60
20698;DHT22;10508;50.956;4.640;2022-07-19T14:29:29;40.40;33.70
20698;DHT22;10508;50.956;4.640;2022-07-19T14:31:55;40.20;34.60
20698;DHT22;10508;50.956;4.640;2022-07-19T14:34:21;40.20;33.20
20698;DHT22;10508;50.956;4.640;2022-07-19T14:36:46;40.20;33.30
20698;DHT22;10508;50.956;4.640;2022-07-19T14:39:12;40.10;34.10
20698;DHT22;10508;50.956;4.640;2022-07-19T14:41:38;40.50;33.60
20698;DHT22;10508;50.956;4.640;2022-07-19T14:44:04;40.60;34.10
20698;DHT22;10508;50.956;4.640;2022-07-19T14:46:30;40.60;34.00
20698;DHT22;10508;50.956;4.640;2022-07-19T14:48:56;40.70;33.00
20698;DHT22;10508;50.956;4.640;2022-07-19T14:51:21;40.70;32.80
20698;DHT22;10508;50.956;4.640;2022-07-19T14:53:47;40.70;32.60
20698;DHT22;10508;50.956;4.640;2022-07-19T14:56:13;40.90;32.80
20698;DHT22;10508;50.956;4.640;2022-07-19T14:58:39;41.00;32.70
20698;DHT22;10508;50.956;4.640;2022-07-19T15:01:04;40.90;33.40
20698;DHT22;10508;50.956;4.640;2022-07-19T15:03:31;41.00;32.30
20698;DHT22;10508;50.956;4.640;2022-07-19T15:05:57;40.80;31.90
20698;DHT22;10508;50.956;4.640;2022-07-19T15:08:22;40.80;31.90
20698;DHT22;10508;50.956;4.640;2022-07-19T15:10:48;40.90;32.00
20698;DHT22;10508;50.956;4.640;2022-07-19T15:13:14;40.80;31.80
20698;DHT22;10508;50.956;4.640;2022-07-19T15:15:39;40.80;32.20
20698;DHT22;10508;50.956;4.640;2022-07-19T15:18:05;40.70;31.70
20698;DHT22;10508;50.956;4.640;2022-07-19T15:20:32;40.60;32.10
20698;DHT22;10508;50.956;4.640;2022-07-19T15:22:58;40.80;31.70
20698;DHT22;10508;50.956;4.640;2022-07-19T15:25:24;40.60;31.50
20698;DHT22;10508;50.956;4.640;2022-07-19T15:27:50;40.50;32.00
20698;DHT22;10508;50.956;4.640;2022-07-19T15:30:17;40.70;32.10
20698;DHT22;10508;50.956;4.640;2022-07-19T15:32:43;41.10;31.90
20698;DHT22;10508;50.956;4.640;2022-07-19T15:35:09;41.20;31.50
20698;DHT22;10508;50.956;4.640;2022-07-19T15:37:34;41.20;30.80
20698;DHT22;10508;50.956;4.640;2022-07-19T15:40:00;41.30;30.70
20698;DHT22;10508;50.956;4.640;2022-07-19T15:42:26;41.50;31.60
20698;DHT22;10508;50.956;4.640;2022-07-19T15:44:52;41.70;33.30
20698;DHT22;10508;50.956;4.640;2022-07-19T15:47:17;41.80;30.80
20698;DHT22;10508;50.956;4.640;2022-07-19T15:49:43;41.50;30.90
20698;DHT22;10508;50.956;4.640;2022-07-19T15:52:09;41.50;31.00
20698;DHT22;10508;50.956;4.640;2022-07-19T15:54:35;41.80;31.50
20698;DHT22;10508;50.956;4.640;2022-07-19T15:57:01;41.60;31.40
20698;DHT22;10508;50.956;4.640;2022-07-19T15:59:27;41.40;30.80
20698;DHT22;10508;50.956;4.640;2022-07-19T16:01:53;41.00;30.90